« Back
NWS Peachtree City, Ga » Text Product » MCN Terminal Aerodrome Forecast


Printer-friendly Version
Current Version              Previous Versions:   1  2  3  4  5  6  7  8  9  

Terminal Aerodrome Forecast

053
FTUS42 KFFC 250900 AAA
TAFMCN
TAF AMD
KMCN 250947Z 2510/2606 00000KT P6SM FEW040
     FM251100 00000KT 6SM BR SCT015
     FM251400 23004KT P6SM SCT025
     FM251600 26006KT P6SM SCT045 PROB30 2519/2523 5SM -TSRA
      BKN035CB
     FM260000 25005KT P6SM FEW050=

USA.gov is the U.S. government's official web portal to all federal, state and local government web resources and services.